createdAt,value
2017-12-06T00:00:40.317Z,6.70
2017-12-06T00:03:08.051Z,5.83
2017-12-06T00:05:35.669Z,6.10
2017-12-06T00:08:03.394Z,6.80
2017-12-06T00:10:31.036Z,6.40
2017-12-06T00:13:04.380Z,6.50
2017-12-06T00:15:37.633Z,7.00
2017-12-06T00:18:05.313Z,6.03
2017-12-06T00:20:33.024Z,6.93
2017-12-06T00:23:00.741Z,7.80
2017-12-06T00:25:28.460Z,7.47
2017-12-06T00:27:56.250Z,7.90
2017-12-06T00:30:23.884Z,8.37
2017-12-06T00:32:51.584Z,8.43
2017-12-06T00:35:19.208Z,7.40
2017-12-06T00:37:46.934Z,8.60
2017-12-06T00:40:14.641Z,8.40
2017-12-06T00:42:42.303Z,9.07
2017-12-06T00:45:09.919Z,9.00
2017-12-06T00:47:37.678Z,8.97
2017-12-06T00:50:05.365Z,8.40
2017-12-06T00:52:33.101Z,8.80
2017-12-06T00:55:00.800Z,9.53
2017-12-06T00:57:28.537Z,9.83
2017-12-06T00:59:56.223Z,8.50
2017-12-06T01:02:23.965Z,8.80
2017-12-06T01:04:51.651Z,10.30
2017-12-06T01:07:19.345Z,9.43
2017-12-06T01:09:47.072Z,9.93
2017-12-06T01:12:14.791Z,10.33
2017-12-06T01:14:42.541Z,8.90
2017-12-06T01:17:10.155Z,9.87
2017-12-06T01:19:37.932Z,10.17
2017-12-06T01:22:05.637Z,9.70
2017-12-06T01:24:33.322Z,9.80
2017-12-06T01:27:00.993Z,9.53
2017-12-06T01:29:28.733Z,10.27
2017-12-06T01:31:56.355Z,10.80
2017-12-06T01:34:24.145Z,8.40
2017-12-06T01:36:51.898Z,8.47
2017-12-06T01:39:19.607Z,9.70
2017-12-06T01:41:47.286Z,10.70
2017-12-06T01:44:15.041Z,10.80
2017-12-06T01:46:42.665Z,9.63
2017-12-06T01:49:10.395Z,10.70
2017-12-06T01:51:38.082Z,9.80
2017-12-06T01:54:05.761Z,9.47
2017-12-06T01:56:33.465Z,10.87
2017-12-06T01:59:01.195Z,10.10
2017-12-06T02:01:28.815Z,9.50
2017-12-06T02:03:56.548Z,10.07
2017-12-06T02:06:24.286Z,11.27
2017-12-06T02:08:52.035Z,9.80
2017-12-06T02:11:19.705Z,9.43
2017-12-06T02:13:47.366Z,10.47
2017-12-06T02:16:15.068Z,11.00
2017-12-06T02:18:42.798Z,9.03
2017-12-06T02:21:10.483Z,10.87
2017-12-06T02:23:38.172Z,11.07
2017-12-06T02:26:06.393Z,11.10
2017-12-06T02:28:34.134Z,10.90
2017-12-06T02:31:01.836Z,9.43
2017-12-06T02:33:29.661Z,11.30
2017-12-06T02:35:57.349Z,11.40
2017-12-06T02:38:25.054Z,10.10
2017-12-06T02:41:04.503Z,11.40
2017-12-06T02:43:43.952Z,11.47
2017-12-06T02:46:11.652Z,10.80
2017-12-06T02:48:39.382Z,10.83
2017-12-06T02:51:07.093Z,10.97
2017-12-06T02:53:34.806Z,12.20
2017-12-06T02:56:02.541Z,10.87
2017-12-06T02:58:30.242Z,10.37
2017-12-06T03:00:57.973Z,10.80
2017-12-06T03:03:25.657Z,9.67
2017-12-06T03:05:53.408Z,11.20
2017-12-06T03:08:21.097Z,11.63
2017-12-06T03:10:48.767Z,9.70
2017-12-06T03:13:16.483Z,11.30
2017-12-06T03:15:44.166Z,11.00
2017-12-06T03:18:11.856Z,11.70
2017-12-06T03:20:39.573Z,9.80
2017-12-06T03:23:07.265Z,11.07
2017-12-06T03:25:35.010Z,11.17
2017-12-06T03:28:02.732Z,10.53
2017-12-06T03:30:30.480Z,10.73
2017-12-06T03:32:58.225Z,10.57
2017-12-06T03:35:25.960Z,11.17
2017-12-06T03:37:53.640Z,9.50
2017-12-06T03:40:21.398Z,11.30
2017-12-06T03:42:49.177Z,10.50
2017-12-06T03:45:16.928Z,11.53
2017-12-06T03:47:44.641Z,10.80
2017-12-06T03:50:12.327Z,11.20
2017-12-06T03:52:40.087Z,11.17
2017-12-06T03:55:07.784Z,11.30
2017-12-06T03:57:35.507Z,8.90
2017-12-06T04:00:03.193Z,9.63
2017-12-06T04:02:30.936Z,11.10
2017-12-06T04:04:58.611Z,10.53
2017-12-06T04:07:26.380Z,11.40
2017-12-06T04:09:54.064Z,9.80
2017-12-06T04:12:21.792Z,10.00
2017-12-06T04:14:49.507Z,11.53
2017-12-06T04:17:17.260Z,10.13
2017-12-06T04:19:44.944Z,9.80
2017-12-06T04:22:12.691Z,10.50
2017-12-06T04:24:40.392Z,11.27
2017-12-06T04:27:08.126Z,9.67
2017-12-06T04:29:35.841Z,9.83
2017-12-06T04:32:03.627Z,9.77
2017-12-06T04:34:31.375Z,10.97
2017-12-06T04:36:59.073Z,10.97
2017-12-06T04:39:26.840Z,10.27
2017-12-06T04:41:54.537Z,9.33
2017-12-06T04:44:22.309Z,11.63
2017-12-06T04:46:50.005Z,10.40
2017-12-06T04:49:17.747Z,10.97
2017-12-06T04:51:45.463Z,10.43
2017-12-06T04:54:13.218Z,10.57
2017-12-06T04:56:40.932Z,11.20
2017-12-06T04:59:08.685Z,11.47
2017-12-06T05:01:36.399Z,10.83
2017-12-06T05:04:04.233Z,11.70
2017-12-06T05:06:31.937Z,10.77
2017-12-06T05:08:59.689Z,10.47
2017-12-06T05:11:27.387Z,11.07
2017-12-06T05:13:55.129Z,11.73
2017-12-06T05:16:22.759Z,10.53
2017-12-06T05:18:50.478Z,10.87
2017-12-06T05:21:18.180Z,11.10
2017-12-06T05:23:45.916Z,9.80
2017-12-06T05:26:13.630Z,10.40
2017-12-06T05:28:41.409Z,11.33
2017-12-06T05:31:09.041Z,10.53
2017-12-06T05:33:36.848Z,11.00
2017-12-06T05:36:04.544Z,9.40
2017-12-06T05:38:32.259Z,10.20
2017-12-06T05:40:59.950Z,11.33
2017-12-06T05:43:27.709Z,9.00
2017-12-06T05:45:55.435Z,11.27
2017-12-06T05:48:23.226Z,34.57
2017-12-06T05:50:50.935Z,23.17
2017-12-06T05:53:19.712Z,30.67
2017-12-06T05:55:47.334Z,15.17
2017-12-06T05:58:15.031Z,17.23
2017-12-06T06:00:42.709Z,10.20
2017-12-06T06:03:10.353Z,11.77
2017-12-06T06:05:38.024Z,12.10
2017-12-06T06:08:05.670Z,10.20
2017-12-06T06:10:33.375Z,12.03
2017-12-06T06:13:01.029Z,9.00
2017-12-06T06:15:28.704Z,9.90
2017-12-06T06:17:56.330Z,11.57
2017-12-06T06:20:24.007Z,10.90
2017-12-06T06:22:51.708Z,11.47
2017-12-06T06:25:19.463Z,11.40
2017-12-06T06:27:47.170Z,11.13
2017-12-06T06:30:14.901Z,8.73
2017-12-06T06:32:42.633Z,10.70
2017-12-06T06:35:10.373Z,12.50
2017-12-06T06:37:38.071Z,11.60
2017-12-06T06:40:05.747Z,11.00
2017-12-06T06:42:33.432Z,11.13
2017-12-06T06:45:01.216Z,11.63
2017-12-06T06:47:28.928Z,10.43
2017-12-06T06:49:56.687Z,10.33
2017-12-06T06:52:24.364Z,10.00
2017-12-06T06:54:52.102Z,12.33
2017-12-06T06:57:19.752Z,11.47
2017-12-06T06:59:47.470Z,9.53
2017-12-06T07:02:15.170Z,10.20
2017-12-06T07:04:42.909Z,11.77
2017-12-06T07:07:10.536Z,12.23
2017-12-06T07:09:38.288Z,11.27
2017-12-06T07:12:05.981Z,11.40
2017-12-06T07:14:33.734Z,11.03
2017-12-06T07:17:01.429Z,12.37
2017-12-06T07:19:29.214Z,10.30
2017-12-06T07:21:56.913Z,9.00
2017-12-06T07:24:24.664Z,10.00
2017-12-06T07:26:52.348Z,8.80
2017-12-06T07:29:20.020Z,9.10
2017-12-06T07:31:47.709Z,9.20
2017-12-06T07:34:15.390Z,9.10
2017-12-06T07:36:43.062Z,9.27
2017-12-06T07:39:10.740Z,10.00
2017-12-06T07:41:38.364Z,9.93
2017-12-06T07:44:06.062Z,10.20
2017-12-06T07:46:33.743Z,8.73
2017-12-06T07:49:01.392Z,8.07
2017-12-06T07:51:29.131Z,9.90
2017-12-06T07:53:56.865Z,9.73
2017-12-06T07:56:24.595Z,8.47
2017-12-06T07:58:52.331Z,9.70
2017-12-06T08:01:19.988Z,8.63
2017-12-06T08:03:47.635Z,9.87
2017-12-06T08:06:15.335Z,8.63
2017-12-06T08:08:42.964Z,8.60
2017-12-06T08:11:10.638Z,8.40
2017-12-06T08:13:38.305Z,8.37
2017-12-06T08:16:06.006Z,8.20
2017-12-06T08:18:33.694Z,8.83
2017-12-06T08:21:01.458Z,8.90
2017-12-06T08:23:29.158Z,8.77
2017-12-06T08:25:56.911Z,9.23
2017-12-06T08:28:24.592Z,9.27
2017-12-06T08:30:52.325Z,9.00
2017-12-06T08:33:20.084Z,9.20
2017-12-06T08:35:47.824Z,8.77
2017-12-06T08:38:15.523Z,8.30
2017-12-06T08:40:43.269Z,7.73
2017-12-06T08:43:10.969Z,9.10
2017-12-06T08:45:38.662Z,7.90
2017-12-06T08:48:06.372Z,9.40
2017-12-06T08:50:34.104Z,8.70
2017-12-06T08:53:01.811Z,7.77
2017-12-06T08:55:29.542Z,9.03
2017-12-06T08:57:57.236Z,8.20
2017-12-06T09:00:25.018Z,7.17
2017-12-06T09:02:52.721Z,7.93
2017-12-06T09:05:20.462Z,8.10
2017-12-06T09:07:48.152Z,8.70
2017-12-06T09:10:15.915Z,7.70
2017-12-06T09:12:43.562Z,7.60
2017-12-06T09:15:11.306Z,6.67
2017-12-06T09:17:39.032Z,7.27
2017-12-06T09:20:06.792Z,6.07
2017-12-06T09:22:34.493Z,6.60
2017-12-06T09:25:02.244Z,6.80
2017-12-06T09:27:29.954Z,7.43
2017-12-06T09:29:57.704Z,6.13
2017-12-06T09:32:25.417Z,5.87
2017-12-06T09:34:53.248Z,6.70
2017-12-06T09:37:20.927Z,6.93
2017-12-06T09:39:48.689Z,7.33
2017-12-06T09:42:16.372Z,7.17
2017-12-06T09:44:44.057Z,7.60
2017-12-06T09:47:11.793Z,6.80
2017-12-06T09:49:39.485Z,6.90
2017-12-06T09:52:07.208Z,6.63
2017-12-06T09:54:34.894Z,7.17
2017-12-06T09:57:02.642Z,7.10
2017-12-06T09:59:30.356Z,6.47
2017-12-06T10:01:58.056Z,6.93
2017-12-06T10:04:25.805Z,5.83
2017-12-06T10:06:53.501Z,6.10
2017-12-06T10:09:21.256Z,6.17
2017-12-06T10:11:48.952Z,6.20
2017-12-06T10:14:16.708Z,5.90
2017-12-06T10:16:44.419Z,5.53
2017-12-06T10:19:12.157Z,5.63
2017-12-06T10:21:39.842Z,5.70
2017-12-06T10:24:07.573Z,5.77
2017-12-06T10:26:35.272Z,5.37
2017-12-06T10:29:03.020Z,5.83
2017-12-06T10:31:30.713Z,5.80
2017-12-06T10:33:58.506Z,5.67
2017-12-06T10:36:26.206Z,5.90
2017-12-06T10:38:53.960Z,5.80
2017-12-06T10:41:21.654Z,5.50
2017-12-06T10:43:49.351Z,6.13
2017-12-06T10:46:17.089Z,6.10
2017-12-06T10:48:44.840Z,5.60
2017-12-06T10:51:12.564Z,6.17
2017-12-06T10:53:40.262Z,5.90
2017-12-06T10:56:08.026Z,5.73
2017-12-06T10:58:35.771Z,5.90
2017-12-06T11:01:03.531Z,5.67
2017-12-06T11:03:31.240Z,5.50
2017-12-06T11:05:59.027Z,5.47
2017-12-06T11:08:26.722Z,6.20
2017-12-06T11:10:54.461Z,4.93
2017-12-06T11:13:22.101Z,5.47
2017-12-06T11:15:49.862Z,5.80
2017-12-06T11:18:17.589Z,6.27
2017-12-06T11:20:45.328Z,5.30
2017-12-06T11:23:13.019Z,5.40
2017-12-06T11:25:40.766Z,5.50
2017-12-06T11:28:08.459Z,4.90
2017-12-06T11:30:36.219Z,5.47
2017-12-06T11:33:03.940Z,5.10
2017-12-06T11:35:31.677Z,5.57
2017-12-06T11:37:59.415Z,4.80
2017-12-06T11:40:27.113Z,4.30
2017-12-06T11:42:54.841Z,5.23
2017-12-06T11:45:22.538Z,5.17
2017-12-06T11:47:50.202Z,4.33
2017-12-06T11:50:17.940Z,4.40
2017-12-06T11:52:45.665Z,4.47
2017-12-06T11:55:13.399Z,4.90
2017-12-06T11:57:41.157Z,5.40
2017-12-06T12:00:08.963Z,5.17
2017-12-06T12:02:36.711Z,5.00
2017-12-06T12:05:04.402Z,5.67
2017-12-06T12:07:32.195Z,5.87
2017-12-06T12:09:59.832Z,5.10
2017-12-06T12:12:27.515Z,4.83
2017-12-06T12:14:55.136Z,4.67
2017-12-06T12:17:22.816Z,6.00
2017-12-06T12:19:50.440Z,5.70
2017-12-06T12:22:18.152Z,6.10
2017-12-06T12:24:45.768Z,6.30
2017-12-06T12:27:13.424Z,5.33
2017-12-06T12:29:41.053Z,5.80
2017-12-06T12:32:08.727Z,5.53
2017-12-06T12:34:36.398Z,6.50
2017-12-06T12:37:04.083Z,6.00
2017-12-06T12:39:31.716Z,5.23
2017-12-06T12:41:59.405Z,5.43
2017-12-06T12:44:27.034Z,5.80
2017-12-06T12:46:54.842Z,5.63
2017-12-06T12:49:22.487Z,5.47
2017-12-06T12:51:50.194Z,5.53
2017-12-06T12:54:17.872Z,5.40
2017-12-06T12:56:45.579Z,5.37
2017-12-06T12:59:13.222Z,5.63
2017-12-06T13:01:40.929Z,5.70
2017-12-06T13:04:08.549Z,5.07
2017-12-06T13:06:36.341Z,6.00
2017-12-06T13:09:04.041Z,6.23
2017-12-06T13:11:31.845Z,6.17
2017-12-06T13:13:59.557Z,9.80
2017-12-06T13:16:27.251Z,8.60
2017-12-06T13:18:55.629Z,6.97
2017-12-06T13:21:23.421Z,6.13
2017-12-06T13:23:51.134Z,5.10
2017-12-06T13:26:18.869Z,6.00
2017-12-06T13:28:46.607Z,5.37
2017-12-06T13:31:14.326Z,7.10
2017-12-06T13:33:42.062Z,4.60
2017-12-06T13:36:09.767Z,4.60
2017-12-06T13:38:37.509Z,4.23
2017-12-06T13:41:05.135Z,4.00
2017-12-06T13:43:32.802Z,4.80
2017-12-06T13:46:00.511Z,3.90
2017-12-06T13:48:28.220Z,3.60
2017-12-06T13:50:55.864Z,4.70
2017-12-06T13:53:23.615Z,3.73
2017-12-06T13:55:51.315Z,3.47
2017-12-06T13:58:19.066Z,3.83
2017-12-06T14:00:46.828Z,3.90
2017-12-06T14:03:14.517Z,3.63
2017-12-06T14:05:42.240Z,3.60
2017-12-06T14:08:10.034Z,3.60
2017-12-06T14:10:37.740Z,3.70
2017-12-06T14:13:05.487Z,3.80
2017-12-06T14:15:33.176Z,3.43
2017-12-06T14:18:00.929Z,3.90
2017-12-06T14:20:28.658Z,16.17
2017-12-06T14:22:56.430Z,5.80
2017-12-06T14:25:24.163Z,8.90
2017-12-06T14:27:51.947Z,7.40
2017-12-06T14:30:19.656Z,6.83
2017-12-06T14:32:47.405Z,7.37
2017-12-06T14:35:15.112Z,6.43
2017-12-06T14:37:42.861Z,4.70
2017-12-06T14:40:10.564Z,5.00
2017-12-06T14:42:38.257Z,3.80
2017-12-06T14:45:05.884Z,3.27
2017-12-06T14:47:33.620Z,2.90
2017-12-06T14:50:01.386Z,3.00
2017-12-06T14:52:29.125Z,3.10
2017-12-06T14:54:56.869Z,3.30
2017-12-06T14:57:24.563Z,3.50
2017-12-06T14:59:52.255Z,2.53
2017-12-06T15:02:19.934Z,3.27
2017-12-06T15:04:47.620Z,2.40
2017-12-06T15:07:15.352Z,2.67
2017-12-06T15:09:43.040Z,3.27
2017-12-06T15:12:10.806Z,3.27
2017-12-06T15:14:38.506Z,2.63
2017-12-06T15:17:06.151Z,2.57
2017-12-06T15:19:33.816Z,2.90
2017-12-06T15:22:01.446Z,3.20
2017-12-06T15:24:29.113Z,2.73
2017-12-06T15:26:56.741Z,2.70
2017-12-06T15:29:24.450Z,2.47
2017-12-06T15:31:52.093Z,2.70
2017-12-06T15:34:19.840Z,3.00
2017-12-06T15:36:47.476Z,3.10
2017-12-06T15:39:15.152Z,2.93
2017-12-06T15:41:42.790Z,2.90
2017-12-06T15:44:10.481Z,3.47
2017-12-06T15:46:38.109Z,2.73
2017-12-06T15:49:05.794Z,2.40
2017-12-06T15:51:33.535Z,2.50
2017-12-06T15:54:01.280Z,3.80
2017-12-06T15:56:28.989Z,2.70
2017-12-06T15:58:56.801Z,6.57
2017-12-06T16:01:24.519Z,8.00
2017-12-06T16:03:52.311Z,16.27
2017-12-06T16:06:19.996Z,5.30
2017-12-06T16:08:47.750Z,23.30
2017-12-06T16:11:15.450Z,12.83
2017-12-06T16:13:43.176Z,10.53
2017-12-06T16:16:10.795Z,4.17
2017-12-06T16:18:38.550Z,3.87
2017-12-06T16:21:06.228Z,3.33
2017-12-06T16:23:33.978Z,2.97
2017-12-06T16:26:01.609Z,3.00
2017-12-06T16:28:29.344Z,2.30
2017-12-06T16:30:57.089Z,2.77
2017-12-06T16:33:24.857Z,2.90
2017-12-06T16:36:04.404Z,2.90
2017-12-06T16:38:32.188Z,3.07
2017-12-06T16:40:59.881Z,2.67
2017-12-06T16:43:27.680Z,3.93
2017-12-06T16:45:55.323Z,3.20
2017-12-06T16:48:23.016Z,3.50
2017-12-06T16:50:50.681Z,3.10
2017-12-06T16:53:18.511Z,3.30
2017-12-06T16:55:46.188Z,3.80
2017-12-06T16:58:13.943Z,3.50
2017-12-06T17:00:41.585Z,3.10
2017-12-06T17:03:09.797Z,3.30
2017-12-06T17:05:37.587Z,3.90
2017-12-06T17:08:05.333Z,3.50
2017-12-06T17:10:33.012Z,3.27
2017-12-06T17:13:00.761Z,3.00
2017-12-06T17:15:28.481Z,3.60
2017-12-06T17:17:56.329Z,3.67
2017-12-06T17:20:24.113Z,3.40
2017-12-06T17:22:51.868Z,3.57
2017-12-06T17:25:19.599Z,3.40
2017-12-06T17:27:47.243Z,3.43
2017-12-06T17:30:26.732Z,3.17
2017-12-06T17:32:54.450Z,3.20
2017-12-06T17:35:22.245Z,3.23
2017-12-06T17:37:49.976Z,3.10
2017-12-06T17:40:17.757Z,3.60
2017-12-06T17:42:45.385Z,3.43
2017-12-06T17:45:13.092Z,3.10
2017-12-06T17:47:40.743Z,3.10
2017-12-06T17:50:20.443Z,3.10
2017-12-06T17:52:48.260Z,3.40
2017-12-06T17:55:16.625Z,2.80
2017-12-06T17:57:44.396Z,3.30
2017-12-06T18:00:12.371Z,3.13
2017-12-06T18:02:40.089Z,3.20
2017-12-06T18:05:09.882Z,3.77
2017-12-06T18:07:37.659Z,3.13
2017-12-06T18:10:05.601Z,3.63
2017-12-06T18:12:33.494Z,3.67
2017-12-06T18:15:01.189Z,4.17
2017-12-06T18:17:28.850Z,3.40
2017-12-06T18:19:56.689Z,3.30
2017-12-06T18:22:24.393Z,3.80
2017-12-06T18:24:52.353Z,4.10
2017-12-06T18:27:20.274Z,4.00
2017-12-06T18:29:48.217Z,4.10
2017-12-06T18:32:16.054Z,3.50
2017-12-06T18:34:43.947Z,4.07
2017-12-06T18:37:11.927Z,3.30
2017-12-06T18:39:39.867Z,4.10
2017-12-06T18:42:07.826Z,4.30
2017-12-06T18:44:36.530Z,3.70
2017-12-06T18:47:04.439Z,3.80
2017-12-06T18:49:33.433Z,4.37
2017-12-06T18:52:02.013Z,3.90
2017-12-06T18:54:29.886Z,4.27
2017-12-06T18:56:57.600Z,4.20
2017-12-06T18:59:25.518Z,4.77
2017-12-06T19:01:53.275Z,4.47
2017-12-06T19:04:21.939Z,3.97
2017-12-06T19:06:49.681Z,4.70
2017-12-06T19:09:17.471Z,4.17
2017-12-06T19:11:45.225Z,5.00
2017-12-06T19:14:13.078Z,4.97
2017-12-06T19:16:40.828Z,4.50
2017-12-06T19:19:08.617Z,5.20
2017-12-06T19:21:36.435Z,4.77
2017-12-06T19:24:04.180Z,4.83
2017-12-06T19:26:32.939Z,4.73
2017-12-06T19:29:01.672Z,5.30
2017-12-06T19:31:31.948Z,5.40
2017-12-06T19:34:00.458Z,4.67
2017-12-06T19:36:30.842Z,4.43
2017-12-06T19:39:01.163Z,5.60
2017-12-06T19:41:29.111Z,5.13
2017-12-06T19:43:57.620Z,4.53
2017-12-06T19:46:31.741Z,5.63
2017-12-06T19:49:03.524Z,5.77
2017-12-06T19:51:33.952Z,5.97
2017-12-06T19:54:03.717Z,5.47
2017-12-06T19:56:33.317Z,4.53
2017-12-06T19:59:01.085Z,5.17
2017-12-06T20:01:33.401Z,5.50
2017-12-06T20:04:01.884Z,5.43
2017-12-06T20:06:32.629Z,6.10
2017-12-06T20:09:01.047Z,5.93
2017-12-06T20:11:30.742Z,4.67
2017-12-06T20:14:01.960Z,5.50
2017-12-06T20:16:30.821Z,6.07
2017-12-06T20:19:01.413Z,4.87
2017-12-06T20:21:32.143Z,6.03
2017-12-06T20:24:03.152Z,5.63
2017-12-06T20:26:31.142Z,5.47
2017-12-06T20:28:58.881Z,5.50
2017-12-06T20:31:26.760Z,5.80
2017-12-06T20:33:54.635Z,5.73
2017-12-06T20:36:23.499Z,5.90
2017-12-06T20:38:51.348Z,4.90
2017-12-06T20:41:19.317Z,5.57
2017-12-06T20:43:47.167Z,5.40
2017-12-06T20:46:15.053Z,5.30
2017-12-06T20:48:42.976Z,5.57
2017-12-06T20:51:10.921Z,5.10
2017-12-06T20:53:38.818Z,5.10
2017-12-06T20:56:07.496Z,4.30
2017-12-06T20:58:36.435Z,5.10
2017-12-06T21:01:05.205Z,4.40
2017-12-06T21:03:33.849Z,4.00
2017-12-06T21:06:01.782Z,4.00
2017-12-06T21:08:29.630Z,4.73
2017-12-06T21:10:57.994Z,3.87
2017-12-06T21:13:26.714Z,3.73
2017-12-06T21:15:54.619Z,4.40
2017-12-06T21:18:22.473Z,4.30
2017-12-06T21:20:50.375Z,4.10
2017-12-06T21:23:18.160Z,3.80
2017-12-06T21:25:46.092Z,3.73
2017-12-06T21:28:13.973Z,3.77
2017-12-06T21:30:41.824Z,4.17
2017-12-06T21:33:09.647Z,4.03
2017-12-06T21:35:37.307Z,3.37
2017-12-06T21:38:05.080Z,3.70
2017-12-06T21:40:32.788Z,3.20
2017-12-06T21:43:00.469Z,3.30
2017-12-06T21:45:28.106Z,3.80
2017-12-06T21:47:55.774Z,3.90
2017-12-06T21:50:23.399Z,3.60
2017-12-06T21:52:51.090Z,3.77
2017-12-06T21:55:18.716Z,4.10
2017-12-06T21:57:46.385Z,3.57
2017-12-06T22:00:14.015Z,4.70
2017-12-06T22:02:41.678Z,4.23
2017-12-06T22:05:09.300Z,3.93
2017-12-06T22:07:37.034Z,4.00
2017-12-06T22:10:04.734Z,4.00
2017-12-06T22:12:32.480Z,4.27
2017-12-06T22:15:00.172Z,4.87
2017-12-06T22:17:27.898Z,5.50
2017-12-06T22:19:55.540Z,5.70
2017-12-06T22:22:23.217Z,5.97
2017-12-06T22:24:50.900Z,5.93
2017-12-06T22:27:18.584Z,6.00
2017-12-06T22:29:46.270Z,5.90
2017-12-06T22:32:13.935Z,7.50
2017-12-06T22:34:41.651Z,7.07
2017-12-06T22:37:09.380Z,6.70
2017-12-06T22:39:37.004Z,7.60
2017-12-06T22:42:04.732Z,7.87
2017-12-06T22:44:32.360Z,8.07
2017-12-06T22:47:00.109Z,8.80
2017-12-06T22:49:27.834Z,9.40
2017-12-06T22:51:55.500Z,8.93
2017-12-06T22:54:23.180Z,9.57
2017-12-06T22:56:50.877Z,9.47
2017-12-06T22:59:18.563Z,8.70
2017-12-06T23:01:46.274Z,9.23
2017-12-06T23:04:13.954Z,9.13
2017-12-06T23:06:41.632Z,9.63
2017-12-06T23:09:09.371Z,9.80
2017-12-06T23:11:37.078Z,9.93
2017-12-06T23:14:04.808Z,9.83
2017-12-06T23:16:32.452Z,10.40
2017-12-06T23:19:00.127Z,10.87
2017-12-06T23:21:27.770Z,11.27
2017-12-06T23:23:55.523Z,11.23
2017-12-06T23:26:23.230Z,9.67
2017-12-06T23:28:51.007Z,10.53
2017-12-06T23:31:18.634Z,10.07
2017-12-06T23:33:46.383Z,11.50
2017-12-06T23:36:14.030Z,10.60
2017-12-06T23:38:41.707Z,10.37
2017-12-06T23:41:09.421Z,11.70
2017-12-06T23:43:37.168Z,10.83
2017-12-06T23:46:04.807Z,12.40
2017-12-06T23:48:32.532Z,10.77
2017-12-06T23:51:00.276Z,11.70
2017-12-06T23:53:28.019Z,11.13
2017-12-06T23:55:55.652Z,11.70
2017-12-06T23:58:23.392Z,11.20
